createdAt,value
2022-12-06T00:01:42.926Z,9.07
2022-12-06T00:04:13.010Z,11.65
2022-12-06T00:06:47.973Z,7.73
2022-12-06T00:09:27.247Z,9.23
2022-12-06T00:11:55.237Z,8.32
2022-12-06T00:14:23.454Z,9.13
2022-12-06T00:16:52.075Z,8.77
2022-12-06T00:19:21.766Z,8.20
2022-12-06T00:21:49.613Z,9.52
2022-12-06T00:24:19.650Z,9.90
2022-12-06T00:26:48.130Z,8.30
2022-12-06T00:29:22.731Z,11.55
2022-12-06T00:31:50.640Z,7.73
2022-12-06T00:34:18.718Z,8.00
2022-12-06T00:36:46.200Z,8.35
2022-12-06T00:39:16.438Z,7.70
2022-12-06T00:41:44.803Z,8.48
2022-12-06T00:44:12.636Z,9.30
2022-12-06T00:46:40.134Z,8.88
2022-12-06T00:49:09.080Z,9.23
2022-12-06T00:51:38.110Z,11.10
2022-12-06T00:54:07.047Z,8.07
2022-12-06T00:56:36.375Z,8.40
2022-12-06T00:59:04.495Z,9.10
2022-12-06T01:01:36.460Z,10.82
2022-12-06T01:04:06.194Z,8.73
2022-12-06T01:06:35.305Z,8.88
2022-12-06T01:09:06.412Z,8.93
2022-12-06T01:11:34.455Z,8.18
2022-12-06T01:14:02.421Z,8.30
2022-12-06T01:16:31.195Z,10.23
2022-12-06T01:19:01.927Z,8.35
2022-12-06T01:21:30.517Z,9.03
2022-12-06T01:23:57.956Z,8.90
2022-12-06T01:26:31.626Z,9.00
2022-12-06T01:29:00.068Z,7.90
2022-12-06T01:31:35.540Z,9.00
2022-12-06T01:34:05.717Z,11.00
2022-12-06T01:36:33.502Z,9.50
2022-12-06T01:39:06.559Z,10.00
2022-12-06T01:41:34.528Z,9.48
2022-12-06T01:44:01.986Z,8.25
2022-12-06T01:46:45.031Z,8.57
2022-12-06T01:49:12.678Z,10.32
2022-12-06T01:51:44.646Z,10.32
2022-12-06T01:54:14.162Z,8.65
2022-12-06T01:56:41.971Z,9.50
2022-12-06T01:59:11.136Z,7.97
2022-12-06T02:01:39.558Z,9.57
2022-12-06T02:04:07.876Z,8.95
2022-12-06T02:06:35.719Z,9.93
2022-12-06T02:09:05.797Z,9.25
2022-12-06T02:11:35.440Z,7.53
2022-12-06T02:14:06.383Z,7.37
2022-12-06T02:16:58.481Z,11.43
2022-12-06T02:19:38.555Z,7.53
2022-12-06T02:22:11.208Z,8.05
2022-12-06T02:25:33.865Z,7.50
2022-12-06T02:28:13.895Z,8.85
2022-12-06T02:30:58.153Z,7.60
2022-12-06T02:33:32.975Z,9.05
2022-12-06T02:36:12.487Z,9.80
2022-12-06T02:38:49.912Z,8.60
2022-12-06T02:41:27.463Z,9.63
2022-12-06T02:44:01.576Z,9.02
2022-12-06T02:46:32.246Z,9.52
2022-12-06T02:49:02.919Z,9.60
2022-12-06T02:51:32.120Z,8.83
2022-12-06T02:54:01.603Z,9.25
2022-12-06T02:56:29.411Z,8.85
2022-12-06T02:58:57.144Z,9.45
2022-12-06T03:01:29.158Z,12.45
2022-12-06T03:04:13.799Z,10.23
2022-12-06T03:07:07.619Z,10.05
2022-12-06T03:09:47.420Z,9.82
2022-12-06T03:12:21.118Z,7.93
2022-12-06T03:15:03.750Z,10.38
2022-12-06T03:17:42.147Z,8.57
2022-12-06T03:20:16.399Z,7.97
2022-12-06T03:22:47.509Z,8.57
2022-12-06T03:25:15.282Z,8.20
2022-12-06T03:27:43.194Z,11.15
2022-12-06T03:30:12.922Z,11.33
2022-12-06T03:32:43.645Z,11.12
2022-12-06T03:35:12.968Z,9.57
2022-12-06T03:37:43.417Z,9.98
2022-12-06T03:40:20.213Z,10.38
2022-12-06T03:42:49.153Z,8.40
2022-12-06T03:45:17.539Z,8.75
2022-12-06T03:47:58.828Z,10.60
2022-12-06T03:50:39.622Z,10.98
2022-12-06T03:53:07.284Z,9.15
2022-12-06T03:55:34.992Z,10.00
2022-12-06T03:58:02.594Z,9.27
2022-12-06T04:00:30.303Z,10.15
2022-12-06T04:02:58.025Z,10.95
2022-12-06T04:05:25.534Z,11.10
2022-12-06T04:07:53.147Z,10.97
2022-12-06T04:10:20.997Z,13.82
2022-12-06T04:13:01.106Z,10.23
2022-12-06T04:15:37.410Z,9.45
2022-12-06T04:18:14.179Z,10.23
2022-12-06T04:21:03.771Z,12.53
2022-12-06T04:23:34.048Z,11.60
2022-12-06T04:26:02.647Z,10.88
2022-12-06T04:28:48.817Z,9.50
2022-12-06T04:31:35.274Z,10.75
2022-12-06T04:34:21.381Z,11.03
2022-12-06T04:37:07.758Z,11.23
2022-12-06T04:39:35.754Z,8.98
2022-12-06T04:42:22.633Z,8.25
2022-12-06T04:44:50.198Z,8.93
2022-12-06T04:47:18.298Z,11.20
2022-12-06T04:49:45.999Z,11.00
2022-12-06T04:52:14.010Z,10.20
2022-12-06T04:54:41.983Z,10.02
2022-12-06T04:57:12.201Z,10.50
2022-12-06T04:59:41.253Z,10.57
2022-12-06T05:02:12.739Z,10.95
2022-12-06T05:04:40.347Z,12.75
2022-12-06T05:07:07.991Z,9.38
2022-12-06T05:09:35.717Z,10.35
2022-12-06T05:12:03.681Z,11.93
2022-12-06T05:14:31.206Z,10.45
2022-12-06T05:16:59.116Z,8.02
2022-12-06T05:19:27.752Z,9.00
2022-12-06T05:21:55.380Z,9.38
2022-12-06T05:24:23.144Z,10.03
2022-12-06T05:26:50.726Z,9.98
2022-12-06T05:29:19.978Z,12.32
2022-12-06T05:31:47.926Z,12.27
2022-12-06T05:34:15.581Z,13.80
2022-12-06T05:36:45.456Z,9.20
2022-12-06T05:39:13.243Z,11.63
2022-12-06T05:41:40.843Z,10.57
2022-12-06T05:44:11.315Z,10.85
2022-12-06T05:46:39.021Z,10.50
2022-12-06T05:49:06.912Z,9.53
2022-12-06T05:51:34.438Z,9.68
2022-12-06T05:54:05.246Z,11.27
2022-12-06T05:56:33.593Z,10.15
2022-12-06T05:59:01.588Z,11.70
2022-12-06T06:01:29.470Z,11.67
2022-12-06T06:03:57.364Z,11.18
2022-12-06T06:06:24.846Z,14.80
2022-12-06T06:08:52.782Z,12.63
2022-12-06T06:11:21.152Z,9.38
2022-12-06T06:13:48.716Z,12.03
2022-12-06T06:16:16.412Z,11.57
2022-12-06T06:18:44.710Z,14.18
2022-12-06T06:21:12.500Z,11.27
2022-12-06T06:23:40.330Z,12.07
2022-12-06T06:26:09.740Z,10.03
2022-12-06T06:28:38.324Z,9.65
2022-12-06T06:31:06.412Z,10.10
2022-12-06T06:33:34.257Z,11.98
2022-12-06T06:36:01.978Z,12.65
2022-12-06T06:38:29.692Z,13.23
2022-12-06T06:40:57.737Z,12.40
2022-12-06T06:43:25.379Z,13.80
2022-12-06T06:45:57.087Z,16.67
2022-12-06T06:48:33.146Z,14.75
2022-12-06T06:51:09.128Z,11.33
2022-12-06T06:53:37.692Z,15.90
2022-12-06T06:56:06.114Z,13.80
2022-12-06T06:58:33.593Z,11.20
2022-12-06T07:01:04.488Z,10.35
2022-12-06T07:03:33.433Z,11.13
2022-12-06T07:06:08.986Z,12.15
2022-12-06T07:08:37.037Z,11.70
2022-12-06T07:11:05.644Z,11.75
2022-12-06T07:13:33.970Z,13.18
2022-12-06T07:16:06.342Z,13.00
2022-12-06T07:18:34.810Z,11.75
2022-12-06T07:21:05.296Z,10.65
2022-12-06T07:23:34.384Z,10.60
2022-12-06T07:26:14.165Z,13.20
2022-12-06T07:28:43.337Z,9.60
2022-12-06T07:31:17.079Z,13.20
2022-12-06T07:33:45.668Z,11.10
2022-12-06T07:36:14.622Z,11.43
2022-12-06T07:38:43.838Z,14.75
2022-12-06T07:41:31.786Z,11.97
2022-12-06T07:44:19.637Z,12.48
2022-12-06T07:46:48.162Z,11.43
2022-12-06T07:49:17.302Z,12.68
2022-12-06T07:51:45.892Z,12.50
2022-12-06T07:54:15.408Z,12.77
2022-12-06T07:56:43.837Z,13.82
2022-12-06T07:59:11.873Z,13.45
2022-12-06T08:01:39.738Z,13.32
2022-12-06T08:04:07.996Z,13.55
2022-12-06T08:06:36.056Z,14.00
2022-12-06T08:09:03.690Z,12.60
2022-12-06T08:11:31.717Z,14.32
2022-12-06T08:13:59.263Z,14.45
2022-12-06T08:16:26.872Z,10.98
2022-12-06T08:18:55.515Z,15.80
2022-12-06T08:21:26.172Z,14.63
2022-12-06T08:23:54.956Z,13.32
2022-12-06T08:26:29.480Z,14.23
2022-12-06T08:29:00.406Z,37.53
2022-12-06T08:31:31.209Z,47.80
2022-12-06T08:34:02.100Z,23.12
2022-12-06T08:36:30.482Z,17.33
2022-12-06T08:39:01.186Z,18.27
2022-12-06T08:41:47.520Z,18.12
2022-12-06T08:44:16.472Z,14.87
2022-12-06T08:46:44.498Z,13.85
2022-12-06T08:49:13.134Z,16.12
2022-12-06T08:51:41.559Z,15.90
2022-12-06T08:54:11.343Z,14.23
2022-12-06T08:56:38.922Z,14.33
2022-12-06T08:59:07.210Z,14.82
2022-12-06T09:01:38.203Z,19.55
2022-12-06T09:04:08.929Z,23.73
2022-12-06T09:06:41.854Z,14.75
2022-12-06T09:09:10.634Z,14.83
2022-12-06T09:11:39.624Z,16.60
2022-12-06T09:14:09.264Z,16.50
2022-12-06T09:16:36.879Z,13.20
2022-12-06T09:19:05.472Z,16.55
2022-12-06T09:21:35.889Z,16.57
2022-12-06T09:24:04.013Z,19.40
2022-12-06T09:26:32.457Z,22.20
2022-12-06T09:29:00.618Z,20.17
2022-12-06T09:31:28.884Z,17.25
2022-12-06T09:33:57.354Z,17.27
2022-12-06T09:36:27.631Z,17.83
2022-12-06T09:39:10.563Z,16.85
2022-12-06T09:41:41.233Z,16.23
2022-12-06T09:44:27.201Z,16.52
2022-12-06T09:47:08.794Z,15.03
2022-12-06T09:49:56.723Z,18.33
2022-12-06T09:52:30.305Z,18.87
2022-12-06T09:55:14.212Z,18.90
2022-12-06T09:58:27.118Z,19.33
2022-12-06T10:01:05.835Z,18.87
2022-12-06T10:03:56.660Z,26.05
2022-12-06T10:06:34.504Z,19.87
2022-12-06T10:09:46.404Z,25.27
2022-12-06T10:12:19.287Z,21.08
2022-12-06T10:15:14.424Z,22.90
2022-12-06T10:17:52.793Z,27.08
2022-12-06T10:20:30.694Z,25.05
2022-12-06T10:23:39.640Z,25.90
2022-12-06T10:26:19.347Z,23.17
2022-12-06T10:28:48.889Z,30.07
2022-12-06T10:31:23.400Z,32.65
2022-12-06T10:33:56.273Z,32.38
2022-12-06T10:36:42.756Z,32.60
2022-12-06T10:39:22.885Z,29.98
2022-12-06T10:42:02.950Z,30.10
2022-12-06T10:44:35.029Z,28.80
2022-12-06T10:47:13.135Z,27.52
2022-12-06T10:49:52.878Z,25.40
2022-12-06T10:52:33.911Z,22.27
2022-12-06T10:55:14.672Z,21.90
2022-12-06T10:58:06.667Z,25.12
2022-12-06T11:01:00.672Z,21.92
2022-12-06T11:03:39.693Z,22.10
2022-12-06T11:06:21.170Z,22.08
2022-12-06T11:09:00.347Z,22.27
2022-12-06T11:11:42.300Z,22.40
2022-12-06T11:14:30.688Z,22.67
2022-12-06T11:17:02.290Z,24.95
2022-12-06T11:19:44.670Z,25.20
2022-12-06T11:22:25.416Z,33.83
2022-12-06T11:25:02.651Z,32.40
2022-12-06T11:27:34.853Z,35.80
2022-12-06T11:30:09.109Z,23.85
2022-12-06T11:32:37.118Z,25.62
2022-12-06T11:35:05.552Z,24.57
2022-12-06T11:37:34.257Z,17.40
2022-12-06T11:40:34.213Z,16.77
2022-12-06T11:43:20.482Z,16.05
2022-12-06T11:45:48.587Z,14.07
2022-12-06T11:48:19.388Z,14.47
2022-12-06T11:50:49.286Z,14.45
2022-12-06T11:53:30.769Z,14.85
2022-12-06T11:56:04.429Z,15.15
2022-12-06T11:59:20.636Z,15.88
2022-12-06T12:01:50.783Z,14.43
2022-12-06T12:04:38.586Z,15.20
2022-12-06T12:07:09.079Z,12.65
2022-12-06T12:09:48.940Z,13.48
2022-12-06T12:12:55.850Z,10.68
2022-12-06T12:15:23.859Z,11.47
2022-12-06T12:17:54.857Z,11.68
2022-12-06T12:20:27.076Z,12.37
2022-12-06T12:23:05.185Z,12.75
2022-12-06T12:25:35.308Z,13.20
2022-12-06T12:28:24.615Z,10.53
2022-12-06T12:30:53.953Z,11.95
2022-12-06T12:33:24.355Z,12.23
2022-12-06T12:36:16.488Z,11.23
2022-12-06T12:38:51.482Z,12.73
2022-12-06T12:41:23.597Z,10.47
2022-12-06T12:44:28.510Z,12.55
2022-12-06T12:47:00.940Z,10.85
2022-12-06T12:49:35.651Z,12.55
2022-12-06T12:52:26.859Z,12.60
2022-12-06T12:55:15.485Z,10.97
2022-12-06T12:57:58.583Z,10.23
2022-12-06T13:00:32.854Z,12.05
2022-12-06T13:03:14.160Z,12.95
2022-12-06T13:05:53.200Z,10.68
2022-12-06T13:08:29.403Z,9.87
2022-12-06T13:11:00.182Z,11.23
2022-12-06T13:13:55.008Z,18.12
2022-12-06T13:16:31.155Z,11.57
2022-12-06T13:18:59.282Z,14.68
2022-12-06T13:21:31.846Z,10.23
2022-12-06T13:24:11.819Z,17.85
2022-12-06T13:26:46.331Z,13.68
2022-12-06T13:29:38.957Z,14.65
2022-12-06T13:32:13.732Z,10.30
2022-12-06T13:34:48.076Z,10.70
2022-12-06T13:37:43.456Z,12.18
2022-12-06T13:40:32.965Z,15.32
2022-12-06T13:43:06.481Z,15.63
2022-12-06T13:45:43.388Z,12.05
2022-12-06T13:48:37.865Z,14.43
2022-12-06T13:51:32.572Z,12.13
2022-12-06T13:54:06.502Z,11.80
2022-12-06T13:56:34.044Z,12.88
2022-12-06T13:59:15.257Z,13.07
2022-12-06T14:01:52.935Z,10.97
2022-12-06T14:04:23.778Z,12.10
2022-12-06T14:06:53.821Z,11.68
2022-12-06T14:09:23.891Z,15.07
2022-12-06T14:11:53.264Z,14.18
2022-12-06T14:14:24.390Z,13.10
2022-12-06T14:16:54.581Z,12.50
2022-12-06T14:19:28.293Z,11.77
2022-12-06T14:21:58.507Z,12.32
2022-12-06T14:24:39.923Z,14.52
2022-12-06T14:27:10.493Z,13.13
2022-12-06T14:29:40.805Z,13.80
2022-12-06T14:32:08.559Z,13.05
2022-12-06T14:34:36.816Z,17.70
2022-12-06T14:37:21.671Z,26.17
2022-12-06T14:39:52.380Z,33.10
2022-12-06T14:42:39.202Z,24.75
2022-12-06T14:45:12.794Z,15.27
2022-12-06T14:47:41.070Z,13.18
2022-12-06T14:50:24.899Z,13.80
2022-12-06T14:53:04.681Z,12.80
2022-12-06T14:55:34.455Z,14.93
2022-12-06T14:58:24.438Z,27.10
2022-12-06T15:00:59.078Z,23.23
2022-12-06T15:03:32.684Z,19.83
2022-12-06T15:06:12.558Z,15.33
2022-12-06T15:08:43.603Z,14.77
2022-12-06T15:11:11.830Z,21.42
2022-12-06T15:13:40.227Z,21.55
2022-12-06T15:16:07.901Z,21.15
2022-12-06T15:18:38.341Z,19.30
2022-12-06T15:21:16.891Z,17.35
2022-12-06T15:23:52.195Z,16.30
2022-12-06T15:26:21.389Z,15.75
2022-12-06T15:28:49.665Z,14.25
2022-12-06T15:31:29.115Z,22.33
2022-12-06T15:33:56.992Z,42.22
2022-12-06T15:36:26.833Z,45.50
2022-12-06T15:38:54.351Z,42.40
2022-12-06T15:41:24.170Z,53.55
2022-12-06T15:43:53.415Z,65.03
2022-12-06T15:46:26.797Z,90.87
2022-12-06T15:48:55.933Z,106.65
2022-12-06T15:51:26.409Z,89.87
2022-12-06T15:53:56.309Z,110.00
2022-12-06T15:56:25.720Z,103.17
2022-12-06T15:58:53.421Z,108.93
2022-12-06T16:01:31.760Z,94.90
2022-12-06T16:03:59.599Z,79.25
2022-12-06T16:06:27.808Z,62.83
2022-12-06T16:08:56.877Z,58.27
2022-12-06T16:11:26.486Z,44.33
2022-12-06T16:13:54.010Z,43.50
2022-12-06T16:16:22.737Z,32.40
2022-12-06T16:18:51.759Z,29.48
2022-12-06T16:21:26.165Z,26.90
2022-12-06T16:24:16.721Z,29.85
2022-12-06T16:26:45.302Z,28.08
2022-12-06T16:29:23.257Z,26.00
2022-12-06T16:31:51.639Z,24.87
2022-12-06T16:34:19.671Z,27.27
2022-12-06T16:36:54.939Z,28.85
2022-12-06T16:39:23.290Z,34.88
2022-12-06T16:41:51.068Z,39.90
2022-12-06T16:44:18.568Z,50.67
2022-12-06T16:46:46.727Z,56.30
2022-12-06T16:52:11.520Z,33.25
2022-12-06T16:54:41.665Z,39.03
2022-12-06T16:57:13.648Z,28.55
2022-12-06T16:59:42.658Z,23.17
2022-12-06T17:02:31.184Z,24.55
2022-12-06T17:05:02.373Z,22.95
2022-12-06T17:07:30.828Z,24.33
2022-12-06T17:09:59.477Z,25.75
2022-12-06T17:12:27.503Z,25.97
2022-12-06T17:14:55.551Z,32.13
2022-12-06T17:17:26.009Z,35.67
2022-12-06T17:19:56.175Z,44.40
2022-12-06T17:22:24.096Z,55.85
2022-12-06T17:24:51.887Z,68.17
2022-12-06T17:27:19.891Z,88.37
2022-12-06T17:29:47.635Z,115.80
2022-12-06T17:32:15.918Z,156.85
2022-12-06T17:34:44.080Z,210.63
2022-12-06T17:37:12.013Z,217.93
2022-12-06T17:39:40.012Z,209.23
2022-12-06T17:42:26.856Z,190.55
2022-12-06T17:44:55.453Z,174.20
2022-12-06T17:47:23.419Z,161.98
2022-12-06T17:49:52.027Z,177.43
2022-12-06T17:52:19.554Z,230.70
2022-12-06T17:54:47.343Z,225.40
2022-12-06T17:57:18.118Z,195.12
2022-12-06T17:59:47.277Z,171.82
2022-12-06T18:02:19.398Z,162.40
2022-12-06T18:04:47.947Z,149.82
2022-12-06T18:07:16.656Z,143.85
2022-12-06T18:09:45.217Z,152.02
2022-12-06T18:12:14.371Z,154.27
2022-12-06T18:14:42.272Z,137.73
2022-12-06T18:17:09.969Z,111.82
2022-12-06T18:19:38.168Z,110.60
2022-12-06T18:22:05.658Z,112.28
2022-12-06T18:24:36.145Z,102.15
2022-12-06T18:27:05.828Z,103.93
2022-12-06T18:29:34.163Z,104.28
2022-12-06T18:32:02.403Z,123.30
2022-12-06T18:34:30.895Z,132.45
2022-12-06T18:36:59.031Z,132.43
2022-12-06T18:39:28.094Z,159.57
2022-12-06T18:41:56.245Z,161.82
2022-12-06T18:44:24.249Z,139.43
2022-12-06T18:46:52.037Z,157.07
2022-12-06T18:49:19.965Z,212.57
2022-12-06T18:51:47.510Z,194.23
2022-12-06T18:54:15.131Z,176.23
2022-12-06T18:56:43.032Z,162.60
2022-12-06T18:59:11.678Z,150.93
2022-12-06T19:01:41.017Z,154.10
2022-12-06T19:04:14.424Z,146.37
2022-12-06T19:06:43.262Z,147.93
2022-12-06T19:09:13.994Z,167.75
2022-12-06T19:11:44.284Z,157.48
2022-12-06T19:14:13.144Z,135.15
2022-12-06T19:16:47.028Z,146.80
2022-12-06T19:19:17.766Z,132.35
2022-12-06T19:21:46.666Z,166.20
2022-12-06T19:24:18.320Z,156.63
2022-12-06T19:26:46.460Z,143.62
2022-12-06T19:29:15.504Z,141.00
2022-12-06T19:31:43.966Z,142.57
2022-12-06T19:34:15.722Z,137.75
2022-12-06T19:36:43.833Z,140.25
2022-12-06T19:39:14.459Z,143.60
2022-12-06T19:42:00.975Z,136.30
2022-12-06T19:44:29.774Z,134.87
2022-12-06T19:46:58.358Z,163.48
2022-12-06T19:49:27.290Z,170.00
2022-12-06T19:51:55.598Z,169.98
2022-12-06T19:54:29.989Z,178.43
2022-12-06T19:57:00.526Z,167.57
2022-12-06T19:59:31.007Z,169.98
2022-12-06T20:01:58.688Z,182.80
2022-12-06T20:04:32.562Z,174.05
2022-12-06T20:07:00.873Z,217.90
2022-12-06T20:09:30.848Z,223.57
2022-12-06T20:12:03.203Z,222.12
2022-12-06T20:14:40.112Z,214.27
2022-12-06T20:17:14.539Z,183.77
2022-12-06T20:19:43.411Z,139.43
2022-12-06T20:22:13.641Z,148.98
2022-12-06T20:24:41.451Z,153.52
2022-12-06T20:27:09.861Z,133.35
2022-12-06T20:29:37.827Z,126.75
2022-12-06T20:32:05.880Z,128.40
2022-12-06T20:34:36.321Z,113.55
2022-12-06T20:37:05.180Z,88.57
2022-12-06T20:39:35.859Z,86.57
2022-12-06T20:42:05.775Z,84.80
2022-12-06T20:44:34.692Z,78.73
2022-12-06T20:47:02.961Z,80.22
2022-12-06T20:49:30.968Z,72.05
2022-12-06T20:52:00.545Z,72.00
2022-12-06T20:54:28.369Z,67.70
2022-12-06T20:56:56.012Z,82.00
2022-12-06T20:59:23.796Z,86.63
2022-12-06T21:01:51.509Z,86.75
2022-12-06T21:04:20.418Z,86.80
2022-12-06T21:06:48.307Z,86.22
2022-12-06T21:09:16.108Z,86.70
2022-12-06T21:11:44.008Z,77.78
2022-12-06T21:14:13.556Z,75.32
2022-12-06T21:16:42.433Z,76.43
2022-12-06T21:19:17.919Z,77.57
2022-12-06T21:21:51.324Z,68.47
2022-12-06T21:24:21.363Z,65.57
2022-12-06T21:26:49.546Z,67.30
2022-12-06T21:29:26.421Z,59.83
2022-12-06T21:31:57.938Z,62.40
2022-12-06T21:34:25.501Z,57.77
2022-12-06T21:36:53.369Z,62.15
2022-12-06T21:39:21.458Z,54.13
2022-12-06T21:41:50.048Z,56.33
2022-12-06T21:44:17.607Z,54.80
2022-12-06T21:46:45.502Z,57.50
2022-12-06T21:49:13.169Z,53.87
2022-12-06T21:51:40.723Z,53.67
2022-12-06T21:54:08.459Z,58.15
2022-12-06T21:56:36.027Z,67.90
2022-12-06T21:59:03.794Z,66.07
2022-12-06T22:01:31.665Z,93.87
2022-12-06T22:04:01.555Z,96.47
2022-12-06T22:06:29.177Z,96.32
2022-12-06T22:09:01.725Z,94.47
2022-12-06T22:11:30.056Z,81.33
2022-12-06T22:13:58.978Z,82.15
2022-12-06T22:16:27.523Z,84.60
2022-12-06T22:18:56.225Z,81.72
2022-12-06T22:21:27.300Z,79.05
2022-12-06T22:23:58.060Z,84.30
2022-12-06T22:26:28.444Z,75.87
2022-12-06T22:28:58.079Z,77.45
2022-12-06T22:31:30.374Z,132.05
2022-12-06T22:33:58.589Z,90.28
2022-12-06T22:36:26.797Z,70.63
2022-12-06T22:38:56.598Z,51.80
2022-12-06T22:41:24.918Z,51.97
2022-12-06T22:43:54.189Z,41.78
2022-12-06T22:46:22.214Z,42.55
2022-12-06T22:48:50.253Z,42.40
2022-12-06T22:51:22.453Z,41.60
2022-12-06T22:54:04.174Z,41.50
2022-12-06T22:56:33.541Z,40.40
2022-12-06T22:59:02.022Z,35.83
2022-12-06T23:01:32.255Z,27.00
2022-12-06T23:04:01.408Z,24.60
2022-12-06T23:06:29.675Z,33.00
2022-12-06T23:08:57.364Z,34.33
2022-12-06T23:11:28.272Z,33.03
2022-12-06T23:13:56.637Z,31.97
2022-12-06T23:16:28.814Z,31.15
2022-12-06T23:18:57.045Z,22.75
2022-12-06T23:21:28.721Z,23.17
2022-12-06T23:23:58.808Z,23.27
2022-12-06T23:26:34.599Z,28.10
2022-12-06T23:29:03.306Z,29.40
2022-12-06T23:31:33.747Z,31.10
2022-12-06T23:34:05.088Z,27.00
2022-12-06T23:36:34.689Z,23.73
2022-12-06T23:39:03.461Z,24.67
2022-12-06T23:41:32.028Z,21.52
2022-12-06T23:44:00.311Z,21.77
2022-12-06T23:46:31.050Z,19.05
2022-12-06T23:48:58.877Z,20.70
2022-12-06T23:51:30.945Z,20.20
2022-12-06T23:54:01.333Z,22.52
2022-12-06T23:56:31.511Z,27.90
2022-12-06T23:58:59.905Z,34.47
